createdAt,value
2018-02-21T00:01:10.770Z,133.73
2018-02-21T00:03:38.892Z,140.60
2018-02-21T00:06:07.801Z,125.90
2018-02-21T00:08:35.941Z,144.10
2018-02-21T00:11:04.177Z,124.83
2018-02-21T00:13:32.333Z,126.80
2018-02-21T00:16:01.246Z,131.63
2018-02-21T00:18:30.562Z,129.63
2018-02-21T00:20:58.700Z,143.33
2018-02-21T00:23:26.817Z,133.93
2018-02-21T00:25:54.960Z,132.27
2018-02-21T00:28:23.097Z,114.07
2018-02-21T00:30:52.402Z,138.87
2018-02-21T00:33:21.297Z,120.77
2018-02-21T00:35:49.452Z,129.03
2018-02-21T00:38:18.377Z,120.00
2018-02-21T00:40:46.535Z,125.47
2018-02-21T00:43:14.662Z,125.90
2018-02-21T00:45:42.806Z,129.50
2018-02-21T00:48:10.940Z,134.40
2018-02-21T00:50:39.085Z,128.80
2018-02-21T00:53:07.205Z,125.50
2018-02-21T00:55:35.344Z,125.37
2018-02-21T00:58:03.469Z,125.13
2018-02-21T01:00:31.627Z,116.17
2018-02-21T01:02:59.769Z,123.20
2018-02-21T01:05:27.924Z,108.83
2018-02-21T01:07:56.050Z,121.77
2018-02-21T01:10:24.189Z,103.73
2018-02-21T01:12:52.368Z,109.83
2018-02-21T01:15:21.266Z,119.00
2018-02-21T01:17:50.185Z,112.53
2018-02-21T01:20:18.313Z,117.27
2018-02-21T01:22:46.471Z,117.40
2018-02-21T01:25:15.569Z,124.03
2018-02-21T01:27:43.731Z,124.27
2018-02-21T01:30:11.855Z,122.73
2018-02-21T01:32:40.766Z,144.90
2018-02-21T01:35:09.918Z,130.53
2018-02-21T01:37:39.413Z,133.97
2018-02-21T01:40:07.529Z,138.70
2018-02-21T01:42:35.673Z,132.93
2018-02-21T01:45:04.217Z,139.50
2018-02-21T01:47:32.373Z,126.43
2018-02-21T01:50:00.496Z,132.57
2018-02-21T01:52:28.659Z,150.23
2018-02-21T01:54:56.780Z,141.00
2018-02-21T01:57:24.929Z,141.60
2018-02-21T01:59:53.824Z,131.93
2018-02-21T02:02:22.725Z,130.87
2018-02-21T02:04:51.617Z,142.10
2018-02-21T02:07:20.529Z,142.23
2018-02-21T02:09:48.657Z,150.53
2018-02-21T02:12:16.807Z,148.13
2018-02-21T02:14:45.692Z,142.90
2018-02-21T02:17:13.854Z,135.67
2018-02-21T02:19:41.978Z,130.60
2018-02-21T02:22:10.894Z,146.67
2018-02-21T02:24:39.018Z,146.63
2018-02-21T02:27:07.929Z,138.70
2018-02-21T02:29:36.062Z,142.43
2018-02-21T02:32:04.209Z,134.53
2018-02-21T02:34:32.328Z,149.30
2018-02-21T02:37:00.468Z,139.13
2018-02-21T02:39:40.837Z,131.47
2018-02-21T02:42:08.977Z,141.13
2018-02-21T02:44:37.872Z,114.33
2018-02-21T02:47:06.834Z,118.70
2018-02-21T02:49:34.974Z,119.00
2018-02-21T02:52:03.122Z,104.50
2018-02-21T02:54:31.247Z,112.90
2018-02-21T02:56:59.411Z,126.77
2018-02-21T02:59:27.566Z,117.03
2018-02-21T03:01:55.721Z,119.67
2018-02-21T03:04:23.859Z,111.57
2018-02-21T03:06:52.018Z,110.60
2018-02-21T03:09:20.149Z,108.90
2018-02-21T03:11:48.314Z,119.77
2018-02-21T03:14:16.448Z,103.77
2018-02-21T03:16:44.604Z,102.33
2018-02-21T03:19:13.496Z,116.13
2018-02-21T03:21:41.658Z,115.60
2018-02-21T03:24:10.226Z,107.97
2018-02-21T03:26:38.378Z,109.43
2018-02-21T03:29:06.601Z,100.80
2018-02-21T03:31:34.779Z,105.53
2018-02-21T03:34:02.917Z,104.60
2018-02-21T03:36:31.070Z,102.17
2018-02-21T03:38:59.206Z,104.07
2018-02-21T03:41:28.628Z,110.60
2018-02-21T03:43:57.520Z,103.07
2018-02-21T03:46:26.437Z,109.73
2018-02-21T03:48:54.590Z,105.63
2018-02-21T03:51:23.480Z,94.77
2018-02-21T03:53:52.401Z,99.27
2018-02-21T03:56:20.536Z,110.83
2018-02-21T03:58:50.612Z,93.60
2018-02-21T04:01:18.754Z,112.53
2018-02-21T04:03:46.893Z,97.30
2018-02-21T04:06:15.026Z,122.53
2018-02-21T04:08:43.186Z,125.03
2018-02-21T04:11:11.323Z,127.50
2018-02-21T04:13:40.260Z,113.17
2018-02-21T04:16:08.398Z,130.20
2018-02-21T04:18:37.317Z,124.57
2018-02-21T04:21:05.452Z,124.43
2018-02-21T04:23:34.372Z,129.57
2018-02-21T04:26:02.530Z,118.87
2018-02-21T04:28:31.451Z,124.07
2018-02-21T04:30:59.585Z,114.07
2018-02-21T04:33:28.506Z,126.70
2018-02-21T04:35:56.626Z,130.70
2018-02-21T04:38:24.790Z,106.93
2018-02-21T04:40:54.286Z,127.67
2018-02-21T04:43:22.445Z,102.30
2018-02-21T04:45:50.581Z,117.20
2018-02-21T04:48:19.502Z,113.87
2018-02-21T04:50:49.016Z,101.97
2018-02-21T04:53:17.175Z,110.17
2018-02-21T04:56:00.201Z,105.43
2018-02-21T04:58:35.968Z,114.05
2018-02-21T05:01:04.092Z,122.00
2018-02-21T05:03:33.748Z,114.40
2018-02-21T05:06:01.876Z,92.07
2018-02-21T05:08:30.805Z,110.13
2018-02-21T05:10:59.008Z,99.77
2018-02-21T05:13:27.646Z,122.90
2018-02-21T05:15:55.760Z,110.53
2018-02-21T05:18:23.911Z,116.80
2018-02-21T05:20:52.092Z,106.57
2018-02-21T05:23:20.261Z,102.90
2018-02-21T05:25:48.400Z,103.43
2018-02-21T05:28:17.314Z,98.53
2018-02-21T05:30:45.444Z,106.57
2018-02-21T05:33:13.601Z,106.10
2018-02-21T05:35:41.822Z,97.13
2018-02-21T05:38:10.731Z,97.83
2018-02-21T05:40:38.857Z,106.30
2018-02-21T05:43:07.011Z,113.13
2018-02-21T05:45:35.149Z,104.07
2018-02-21T05:48:03.298Z,110.00
2018-02-21T05:50:32.186Z,108.50
2018-02-21T05:53:01.124Z,110.07
2018-02-21T05:55:29.248Z,99.07
2018-02-21T05:57:58.170Z,105.83
2018-02-21T06:00:26.295Z,106.43
2018-02-21T06:02:55.587Z,96.40
2018-02-21T06:05:23.714Z,109.93
2018-02-21T06:07:54.510Z,105.90
2018-02-21T06:10:22.868Z,104.90
2018-02-21T06:12:51.038Z,99.50
2018-02-21T06:15:19.167Z,107.73
2018-02-21T06:17:48.085Z,109.47
2018-02-21T06:20:17.141Z,115.73
2018-02-21T06:22:46.065Z,102.47
2018-02-21T06:25:14.192Z,96.03
2018-02-21T06:27:44.694Z,98.37
2018-02-21T06:30:12.823Z,102.07
2018-02-21T06:32:41.741Z,104.43
2018-02-21T06:35:09.864Z,91.30
2018-02-21T06:37:38.022Z,109.20
2018-02-21T06:40:06.165Z,100.77
2018-02-21T06:42:34.341Z,102.33
2018-02-21T06:45:02.466Z,96.80
2018-02-21T06:47:31.065Z,94.07
2018-02-21T06:49:59.939Z,89.23
2018-02-21T06:52:28.087Z,83.33
2018-02-21T06:54:56.210Z,81.50
2018-02-21T06:57:25.114Z,83.87
2018-02-21T06:59:53.262Z,70.90
2018-02-21T07:02:35.458Z,75.90
2018-02-21T07:05:04.963Z,88.93
2018-02-21T07:07:33.090Z,87.37
2018-02-21T07:10:01.257Z,85.83
2018-02-21T07:12:29.397Z,76.80
2018-02-21T07:14:58.350Z,78.50
2018-02-21T07:17:26.466Z,80.60
2018-02-21T07:19:55.401Z,72.60
2018-02-21T07:22:24.306Z,71.83
2018-02-21T07:24:52.446Z,75.10
2018-02-21T07:27:20.993Z,74.77
2018-02-21T07:29:50.294Z,85.43
2018-02-21T07:32:19.199Z,81.73
2018-02-21T07:34:47.378Z,79.67
2018-02-21T07:37:15.664Z,79.10
2018-02-21T07:39:43.862Z,69.37
2018-02-21T07:42:11.990Z,67.43
2018-02-21T07:44:40.905Z,64.63
2018-02-21T07:47:09.769Z,74.43
2018-02-21T07:49:38.686Z,78.80
2018-02-21T07:52:06.829Z,68.53
2018-02-21T07:54:36.388Z,63.77
2018-02-21T07:57:04.618Z,75.97
2018-02-21T07:59:34.900Z,71.70
2018-02-21T08:02:03.230Z,73.97
2018-02-21T08:04:33.241Z,67.63
2018-02-21T08:07:01.517Z,60.33
2018-02-21T08:09:30.430Z,73.10
2018-02-21T08:11:58.791Z,72.70
2018-02-21T08:14:27.993Z,65.77
2018-02-21T08:16:56.162Z,67.93
2018-02-21T08:19:25.806Z,65.10
2018-02-21T08:21:54.037Z,69.43
2018-02-21T08:24:22.313Z,65.77
2018-02-21T08:26:51.848Z,68.63
2018-02-21T08:29:20.318Z,60.27
2018-02-21T08:31:49.771Z,62.90
2018-02-21T08:34:17.961Z,64.93
2018-02-21T08:36:46.159Z,61.57
2018-02-21T08:39:15.078Z,56.67
2018-02-21T08:41:43.221Z,63.57
2018-02-21T08:44:12.818Z,63.20
2018-02-21T08:46:41.072Z,64.20
2018-02-21T08:49:10.195Z,63.83
2018-02-21T08:51:39.248Z,67.13
2018-02-21T08:54:07.402Z,63.53
2018-02-21T08:56:35.538Z,62.57
2018-02-21T08:59:03.742Z,55.03
2018-02-21T09:01:32.494Z,58.67
2018-02-21T09:04:00.687Z,67.17
2018-02-21T09:06:29.402Z,67.70
2018-02-21T09:08:57.607Z,62.27
2018-02-21T09:11:26.088Z,65.27
2018-02-21T09:13:54.349Z,72.27
2018-02-21T09:16:22.478Z,61.17
2018-02-21T09:18:50.635Z,65.50
2018-02-21T09:21:19.702Z,67.60
2018-02-21T09:23:52.693Z,64.87
2018-02-21T09:26:21.256Z,73.90
2018-02-21T09:28:49.401Z,79.47
2018-02-21T09:31:17.648Z,64.33
2018-02-21T09:33:47.571Z,64.10
2018-02-21T09:36:15.829Z,65.77
2018-02-21T09:38:44.655Z,64.90
2018-02-21T09:41:12.878Z,69.87
2018-02-21T09:43:41.098Z,67.87
2018-02-21T09:46:11.324Z,65.27
2018-02-21T09:48:39.562Z,71.30
2018-02-21T09:51:07.746Z,65.10
2018-02-21T09:53:36.328Z,70.17
2018-02-21T09:56:04.485Z,63.70
2018-02-21T09:58:32.732Z,64.93
2018-02-21T10:01:00.998Z,63.20
2018-02-21T10:03:30.510Z,71.90
2018-02-21T10:05:58.822Z,68.87
2018-02-21T10:08:27.106Z,65.90
2018-02-21T10:10:55.271Z,69.37
2018-02-21T10:13:23.397Z,68.47
2018-02-21T10:15:51.567Z,68.53
2018-02-21T10:18:19.721Z,66.57
2018-02-21T10:20:48.706Z,65.53
2018-02-21T10:23:17.992Z,66.63
2018-02-21T10:25:46.143Z,68.57
2018-02-21T10:28:14.998Z,68.03
2018-02-21T10:30:43.289Z,63.07
2018-02-21T10:33:11.503Z,65.27
2018-02-21T10:35:39.705Z,75.33
2018-02-21T10:38:08.595Z,57.50
2018-02-21T10:40:36.780Z,59.87
2018-02-21T10:43:04.944Z,74.53
2018-02-21T10:45:33.784Z,59.50
2018-02-21T10:48:03.736Z,61.67
2018-02-21T10:50:34.118Z,56.73
2018-02-21T10:53:02.949Z,59.30
2018-02-21T10:55:31.550Z,49.10
2018-02-21T10:57:59.690Z,55.07
2018-02-21T11:00:33.466Z,61.63
2018-02-21T11:03:03.170Z,50.03
2018-02-21T11:05:32.156Z,43.90
2018-02-21T11:08:00.474Z,50.30
2018-02-21T11:10:28.884Z,45.77
2018-02-21T11:12:57.773Z,47.93
2018-02-21T11:15:26.007Z,41.73
2018-02-21T11:17:54.411Z,41.97
2018-02-21T11:20:22.681Z,45.77
2018-02-21T11:22:50.813Z,47.10
2018-02-21T11:25:18.958Z,58.13
2018-02-21T11:27:47.865Z,50.27
2018-02-21T11:30:16.020Z,50.37
2018-02-21T11:32:44.961Z,50.43
2018-02-21T11:35:13.102Z,47.60
2018-02-21T11:37:41.230Z,45.97
2018-02-21T11:40:09.376Z,49.10
2018-02-21T11:42:37.508Z,55.17
2018-02-21T11:45:06.788Z,46.60
2018-02-21T11:47:35.021Z,51.47
2018-02-21T11:50:03.295Z,62.50
2018-02-21T11:52:31.417Z,59.40
2018-02-21T11:55:00.672Z,49.97
2018-02-21T11:57:29.730Z,59.53
2018-02-21T11:59:58.686Z,57.23
2018-02-21T12:02:26.821Z,52.37
2018-02-21T12:04:54.964Z,52.20
2018-02-21T12:07:23.854Z,56.43
2018-02-21T12:09:53.605Z,49.70
2018-02-21T12:12:22.081Z,50.37
2018-02-21T12:14:50.241Z,52.63
2018-02-21T12:17:18.369Z,55.10
2018-02-21T12:19:46.529Z,50.07
2018-02-21T12:22:14.653Z,49.90
2018-02-21T12:24:43.584Z,49.33
2018-02-21T12:27:11.712Z,45.60
2018-02-21T12:29:40.630Z,56.57
2018-02-21T12:32:08.752Z,51.43
2018-02-21T12:34:37.528Z,48.90
2018-02-21T12:37:06.578Z,53.87
2018-02-21T12:39:34.729Z,55.83
2018-02-21T12:42:03.995Z,50.63
2018-02-21T12:44:32.693Z,55.23
2018-02-21T12:47:00.977Z,53.60
2018-02-21T12:49:30.788Z,49.87
2018-02-21T12:51:59.000Z,49.17
2018-02-21T12:54:27.162Z,52.83
2018-02-21T12:56:56.984Z,49.17
2018-02-21T12:59:25.110Z,56.67
2018-02-21T13:01:53.278Z,56.00
2018-02-21T13:04:21.385Z,57.70
2018-02-21T13:06:50.302Z,46.83
2018-02-21T13:09:18.421Z,49.67
2018-02-21T13:11:46.566Z,45.93
2018-02-21T13:14:14.697Z,46.03
2018-02-21T13:16:43.606Z,52.67
2018-02-21T13:19:11.729Z,45.10
2018-02-21T13:21:39.882Z,47.57
2018-02-21T13:24:08.027Z,42.93
2018-02-21T13:26:36.185Z,45.70
2018-02-21T13:29:05.072Z,45.60
2018-02-21T13:31:33.986Z,40.60
2018-02-21T13:34:02.684Z,33.87
2018-02-21T13:36:30.838Z,45.50
2018-02-21T13:38:58.969Z,40.13
2018-02-21T13:41:27.103Z,37.10
2018-02-21T13:43:56.083Z,37.77
2018-02-21T13:46:24.265Z,39.50
2018-02-21T13:48:52.390Z,38.10
2018-02-21T13:51:20.531Z,38.73
2018-02-21T13:53:48.653Z,36.33
2018-02-21T13:56:18.290Z,37.93
2018-02-21T13:58:46.421Z,40.63
2018-02-21T14:01:14.575Z,28.70
2018-02-21T14:03:42.701Z,40.13
2018-02-21T14:06:10.860Z,35.23
2018-02-21T14:08:39.749Z,35.03
2018-02-21T14:11:08.660Z,39.87
2018-02-21T14:13:36.785Z,37.80
2018-02-21T14:16:04.966Z,27.80
2018-02-21T14:18:33.092Z,32.33
2018-02-21T14:21:01.245Z,34.90
2018-02-21T14:23:30.129Z,32.90
2018-02-21T14:25:59.049Z,39.47
2018-02-21T14:28:27.167Z,39.37
2018-02-21T14:30:55.323Z,39.03
2018-02-21T14:33:23.453Z,36.33
2018-02-21T14:35:51.614Z,35.13
2018-02-21T14:38:20.505Z,41.17
2018-02-21T14:40:49.430Z,34.93
2018-02-21T14:43:21.372Z,43.00
2018-02-21T14:45:49.512Z,39.23
2018-02-21T14:48:17.639Z,31.33
2018-02-21T14:50:45.781Z,47.97
2018-02-21T14:53:13.892Z,37.67
2018-02-21T14:55:42.042Z,35.87
2018-02-21T14:58:10.161Z,36.10
2018-02-21T15:00:39.075Z,42.57
2018-02-21T15:03:07.201Z,32.60
2018-02-21T15:05:35.386Z,39.67
2018-02-21T15:08:03.513Z,33.73
2018-02-21T15:10:31.648Z,32.30
2018-02-21T15:13:00.538Z,39.23
2018-02-21T15:15:29.461Z,33.00
2018-02-21T15:17:57.578Z,34.70
2018-02-21T15:20:25.745Z,35.33
2018-02-21T15:22:53.916Z,32.67
2018-02-21T15:25:22.035Z,35.07
2018-02-21T15:27:50.973Z,39.50
2018-02-21T15:30:19.150Z,36.50
2018-02-21T15:32:47.242Z,40.10
2018-02-21T15:35:15.364Z,39.67
2018-02-21T15:37:43.525Z,40.57
2018-02-21T15:40:11.654Z,35.53
2018-02-21T15:42:39.784Z,35.97
2018-02-21T15:45:07.952Z,39.20
2018-02-21T15:47:36.848Z,39.30
2018-02-21T15:50:04.966Z,45.53
2018-02-21T15:52:33.113Z,43.33
2018-02-21T15:55:01.225Z,36.10
2018-02-21T15:57:29.386Z,38.53
2018-02-21T15:59:57.507Z,44.13
2018-02-21T16:02:25.659Z,43.63
2018-02-21T16:04:53.778Z,41.70
2018-02-21T16:07:21.961Z,42.70
2018-02-21T16:09:50.849Z,46.13
2018-02-21T16:12:19.761Z,44.87
2018-02-21T16:14:47.889Z,46.17
2018-02-21T16:17:16.043Z,39.17
2018-02-21T16:19:44.181Z,40.90
2018-02-21T16:22:12.357Z,44.83
2018-02-21T16:24:40.515Z,43.80
2018-02-21T16:27:09.458Z,46.07
2018-02-21T16:29:37.621Z,41.03
2018-02-21T16:32:06.598Z,35.07
2018-02-21T16:34:34.938Z,43.70
2018-02-21T16:37:03.142Z,47.63
2018-02-21T16:39:31.317Z,47.17
2018-02-21T16:41:59.528Z,43.33
2018-02-21T16:44:28.250Z,42.13
2018-02-21T16:46:56.454Z,53.50
2018-02-21T16:49:26.043Z,42.60
2018-02-21T16:54:33.235Z,52.13
2018-02-21T16:57:09.897Z,42.73
2018-02-21T16:59:40.015Z,60.70
2018-02-21T17:02:10.297Z,44.40
2018-02-21T17:04:39.598Z,41.73
2018-02-21T17:07:07.765Z,44.03
2018-02-21T17:09:36.392Z,43.77
2018-02-21T17:12:04.524Z,43.40
2018-02-21T17:14:32.645Z,42.47
2018-02-21T17:17:00.797Z,45.63
2018-02-21T17:19:28.928Z,39.20
2018-02-21T17:21:57.077Z,54.40
2018-02-21T17:24:25.194Z,45.30
2018-02-21T17:26:56.988Z,39.57
2018-02-21T17:29:26.467Z,44.93
2018-02-21T17:31:54.605Z,37.23
2018-02-21T17:34:23.486Z,43.80
2018-02-21T17:36:51.624Z,50.27
2018-02-21T17:39:19.758Z,43.27
2018-02-21T17:41:47.910Z,47.43
2018-02-21T17:44:16.845Z,47.07
2018-02-21T17:46:44.982Z,40.03
2018-02-21T17:49:14.412Z,46.63
2018-02-21T17:51:42.564Z,40.93
2018-02-21T17:54:11.443Z,47.43
2018-02-21T17:56:40.348Z,62.80
2018-02-21T17:59:09.228Z,57.63
2018-02-21T18:01:38.156Z,49.67
2018-02-21T18:04:06.268Z,48.20
2018-02-21T18:06:34.386Z,41.03
2018-02-21T18:09:02.531Z,46.67
2018-02-21T18:11:30.677Z,48.13
2018-02-21T18:13:58.825Z,41.47
2018-02-21T18:16:26.943Z,42.43
2018-02-21T18:18:55.094Z,40.70
2018-02-21T18:21:38.908Z,55.90
2018-02-21T18:24:07.045Z,52.47
2018-02-21T18:26:35.920Z,44.27
2018-02-21T18:29:04.115Z,50.73
2018-02-21T18:31:34.986Z,69.60
2018-02-21T18:34:05.302Z,52.83
2018-02-21T18:36:33.516Z,69.20
2018-02-21T18:39:01.655Z,49.70
2018-02-21T18:41:29.792Z,52.93
2018-02-21T18:43:58.691Z,46.23
2018-02-21T18:46:27.575Z,56.20
2018-02-21T18:48:56.484Z,58.33
2018-02-21T18:51:24.596Z,54.87
2018-02-21T18:53:52.733Z,49.73
2018-02-21T18:56:20.863Z,55.40
2018-02-21T18:58:48.992Z,46.17
2018-02-21T19:01:17.219Z,50.77
2018-02-21T19:03:45.360Z,44.23
2018-02-21T19:06:13.481Z,42.83
2018-02-21T19:08:42.383Z,47.23
2018-02-21T19:11:10.956Z,47.93
2018-02-21T19:13:39.116Z,43.70
2018-02-21T19:16:07.228Z,44.07
2018-02-21T19:18:35.381Z,44.50
2018-02-21T19:21:04.264Z,42.10
2018-02-21T19:23:33.160Z,45.10
2018-02-21T19:26:02.045Z,46.40
2018-02-21T19:28:30.949Z,48.17
2018-02-21T19:30:59.077Z,44.33
2018-02-21T19:33:27.213Z,44.23
2018-02-21T19:35:55.337Z,38.37
2018-02-21T19:38:24.264Z,48.77
2018-02-21T19:40:52.401Z,35.33
2018-02-21T19:43:20.585Z,41.33
2018-02-21T19:45:48.696Z,50.30
2018-02-21T19:48:16.845Z,41.60
2018-02-21T19:50:45.740Z,48.53
2018-02-21T19:53:14.745Z,44.50
2018-02-21T19:55:42.900Z,55.00
2018-02-21T19:58:11.825Z,41.83
2018-02-21T20:00:39.968Z,41.03
2018-02-21T20:03:08.872Z,43.37
2018-02-21T20:05:37.767Z,41.83
2018-02-21T20:08:05.908Z,37.93
2018-02-21T20:10:34.029Z,39.83
2018-02-21T20:13:02.310Z,43.47
2018-02-21T20:15:30.446Z,42.57
2018-02-21T20:17:59.360Z,39.67
2018-02-21T20:20:27.483Z,42.90
2018-02-21T20:22:55.622Z,37.87
2018-02-21T20:25:23.741Z,41.57
2018-02-21T20:27:51.880Z,39.40
2018-02-21T20:30:20.420Z,42.63
2018-02-21T20:32:49.340Z,45.93
2018-02-21T20:35:17.506Z,40.73
2018-02-21T20:37:45.649Z,41.47
2018-02-21T20:40:13.993Z,41.83
2018-02-21T20:42:43.302Z,44.60
2018-02-21T20:45:17.144Z,49.30
2018-02-21T20:47:46.088Z,43.10
2018-02-21T20:50:14.200Z,40.37
2018-02-21T20:52:42.339Z,63.70
2018-02-21T20:55:10.468Z,40.73
2018-02-21T21:00:13.791Z,40.30
2018-02-21T21:02:41.900Z,50.33
2018-02-21T21:05:10.045Z,43.00
2018-02-21T21:07:38.201Z,33.50
2018-02-21T21:10:06.613Z,49.10
2018-02-21T21:12:35.788Z,42.80
2018-02-21T21:15:04.046Z,40.33
2018-02-21T21:17:33.087Z,37.80
2018-02-21T21:20:02.053Z,38.47
2018-02-21T21:22:30.180Z,39.20
2018-02-21T21:24:58.309Z,37.53
2018-02-21T21:27:26.437Z,41.73
2018-02-21T21:29:54.580Z,39.13
2018-02-21T21:32:22.854Z,35.60
2018-02-21T21:34:51.121Z,31.60
2018-02-21T21:37:19.344Z,34.27
2018-02-21T21:39:47.648Z,36.57
2018-02-21T21:42:16.617Z,37.20
2018-02-21T21:44:45.534Z,40.23
2018-02-21T21:47:13.656Z,39.07
2018-02-21T21:49:41.796Z,37.70
2018-02-21T21:52:09.924Z,39.43
2018-02-21T21:54:38.069Z,33.63
2018-02-21T21:57:06.192Z,36.47
2018-02-21T21:59:34.350Z,38.60
2018-02-21T22:02:03.241Z,35.67
2018-02-21T22:04:32.154Z,38.47
2018-02-21T22:07:00.269Z,36.80
2018-02-21T22:09:29.197Z,33.53
2018-02-21T22:11:58.092Z,35.70
2018-02-21T22:14:26.996Z,42.90
2018-02-21T22:16:55.121Z,37.37
2018-02-21T22:19:23.261Z,39.73
2018-02-21T22:21:51.400Z,39.20
2018-02-21T22:24:20.296Z,50.93
2018-02-21T22:26:49.182Z,38.27
2018-02-21T22:29:18.099Z,29.77
2018-02-21T22:31:46.212Z,32.20
2018-02-21T22:34:14.360Z,34.60
2018-02-21T22:36:42.480Z,38.57
2018-02-21T22:39:10.622Z,36.40
2018-02-21T22:41:38.732Z,33.57
2018-02-21T22:44:07.646Z,33.90
2018-02-21T22:46:36.462Z,34.70
2018-02-21T22:49:04.601Z,40.73
2018-02-21T22:51:33.526Z,35.47
2018-02-21T22:54:01.673Z,37.17
2018-02-21T22:56:29.798Z,38.93
2018-02-21T22:58:57.937Z,31.70
2018-02-21T23:01:26.057Z,37.73
2018-02-21T23:03:54.200Z,32.07
2018-02-21T23:06:22.319Z,30.50
2018-02-21T23:08:51.236Z,32.20
2018-02-21T23:11:19.352Z,33.33
2018-02-21T23:13:47.492Z,36.53
2018-02-21T23:16:15.604Z,34.60
2018-02-21T23:18:43.749Z,36.97
2018-02-21T23:21:11.865Z,36.23
2018-02-21T23:23:40.010Z,34.30
2018-02-21T23:26:08.125Z,31.57
2018-02-21T23:28:37.631Z,32.73
2018-02-21T23:31:06.509Z,32.63
2018-02-21T23:33:34.650Z,31.80
2018-02-21T23:36:02.765Z,34.60
2018-02-21T23:38:31.694Z,33.33
2018-02-21T23:40:59.820Z,37.00
2018-02-21T23:43:27.936Z,29.97
2018-02-21T23:45:56.084Z,31.37
2018-02-21T23:48:24.979Z,33.53
2018-02-21T23:50:54.174Z,29.47
2018-02-21T23:53:23.048Z,41.17
2018-02-21T23:55:51.196Z,37.53
2018-02-21T23:58:19.320Z,37.80
